sensor_id;sensor_type;location;lat;lon;timestamp;P1;durP1;ratioP1;P2;durP2;ratioP2
6531;SDS011;3299;42.004;24.868;2022-09-09T00:04:40;4.05;;;3.75;;
6531;SDS011;3299;42.004;24.868;2022-09-09T00:07:25;3.88;;;3.58;;
6531;SDS011;3299;42.004;24.868;2022-09-09T00:15:19;4.30;;;3.90;;
6531;SDS011;3299;42.004;24.868;2022-09-09T00:25:49;5.82;;;3.72;;
6531;SDS011;3299;42.004;24.868;2022-09-09T00:28:20;3.65;;;3.38;;
6531;SDS011;3299;42.004;24.868;2022-09-09T00:30:49;3.92;;;3.63;;
6531;SDS011;3299;42.004;24.868;2022-09-09T00:33:24;5.25;;;3.65;;
6531;SDS011;3299;42.004;24.868;2022-09-09T00:35:54;5.22;;;3.80;;
6531;SDS011;3299;42.004;24.868;2022-09-09T00:38:35;4.05;;;3.75;;
6531;SDS011;3299;42.004;24.868;2022-09-09T00:44:18;5.20;;;3.97;;
6531;SDS011;3299;42.004;24.868;2022-09-09T00:49:24;4.30;;;4.00;;
6531;SDS011;3299;42.004;24.868;2022-09-09T00:57:33;5.50;;;4.68;;
6531;SDS011;3299;42.004;24.868;2022-09-09T01:03:10;9.45;;;5.65;;
6531;SDS011;3299;42.004;24.868;2022-09-09T01:16:35;11.23;;;6.97;;
6531;SDS011;3299;42.004;24.868;2022-09-09T01:19:01;11.82;;;6.72;;
6531;SDS011;3299;42.004;24.868;2022-09-09T01:21:43;11.45;;;6.70;;
6531;SDS011;3299;42.004;24.868;2022-09-09T01:27:01;9.75;;;6.70;;
6531;SDS011;3299;42.004;24.868;2022-09-09T01:29:29;9.93;;;7.53;;
6531;SDS011;3299;42.004;24.868;2022-09-09T01:31:56;9.30;;;6.50;;
6531;SDS011;3299;42.004;24.868;2022-09-09T01:34:24;9.23;;;6.75;;
6531;SDS011;3299;42.004;24.868;2022-09-09T01:36:56;8.20;;;6.47;;
6531;SDS011;3299;42.004;24.868;2022-09-09T01:39:27;12.32;;;6.78;;
6531;SDS011;3299;42.004;24.868;2022-09-09T01:41:53;10.55;;;6.50;;
6531;SDS011;3299;42.004;24.868;2022-09-09T01:44:20;9.50;;;7.38;;
6531;SDS011;3299;42.004;24.868;2022-09-09T01:46:48;8.85;;;6.88;;
6531;SDS011;3299;42.004;24.868;2022-09-09T01:49:13;7.32;;;6.50;;
6531;SDS011;3299;42.004;24.868;2022-09-09T01:51:39;9.68;;;6.63;;
6531;SDS011;3299;42.004;24.868;2022-09-09T01:54:07;7.65;;;6.70;;
6531;SDS011;3299;42.004;24.868;2022-09-09T01:57:18;10.55;;;7.45;;
6531;SDS011;3299;42.004;24.868;2022-09-09T02:02:26;10.70;;;7.07;;
6531;SDS011;3299;42.004;24.868;2022-09-09T02:08:20;8.38;;;7.57;;
6531;SDS011;3299;42.004;24.868;2022-09-09T02:11:07;10.85;;;7.25;;
6531;SDS011;3299;42.004;24.868;2022-09-09T02:13:38;12.30;;;7.32;;
6531;SDS011;3299;42.004;24.868;2022-09-09T02:19:02;15.02;;;8.40;;
6531;SDS011;3299;42.004;24.868;2022-09-09T02:21:35;14.82;;;8.30;;
6531;SDS011;3299;42.004;24.868;2022-09-09T02:24:02;10.45;;;8.10;;
6531;SDS011;3299;42.004;24.868;2022-09-09T02:26:30;12.88;;;7.68;;
6531;SDS011;3299;42.004;24.868;2022-09-09T02:28:59;10.13;;;7.85;;
6531;SDS011;3299;42.004;24.868;2022-09-09T02:31:28;12.30;;;7.97;;
6531;SDS011;3299;42.004;24.868;2022-09-09T02:33:57;15.48;;;8.48;;
6531;SDS011;3299;42.004;24.868;2022-09-09T02:36:26;11.80;;;8.88;;
6531;SDS011;3299;42.004;24.868;2022-09-09T02:38:56;14.07;;;8.10;;
6531;SDS011;3299;42.004;24.868;2022-09-09T02:41:32;10.10;;;7.90;;
6531;SDS011;3299;42.004;24.868;2022-09-09T02:43:59;9.98;;;8.50;;
6531;SDS011;3299;42.004;24.868;2022-09-09T02:51:42;9.45;;;7.97;;
6531;SDS011;3299;42.004;24.868;2022-09-09T02:54:22;8.82;;;7.85;;
6531;SDS011;3299;42.004;24.868;2022-09-09T02:56:55;9.10;;;6.97;;
6531;SDS011;3299;42.004;24.868;2022-09-09T02:59:45;9.07;;;6.88;;
6531;SDS011;3299;42.004;24.868;2022-09-09T03:02:12;9.75;;;8.00;;
6531;SDS011;3299;42.004;24.868;2022-09-09T03:04:38;7.57;;;6.80;;
6531;SDS011;3299;42.004;24.868;2022-09-09T03:07:05;7.95;;;6.97;;
6531;SDS011;3299;42.004;24.868;2022-09-09T03:09:30;8.27;;;6.80;;
6531;SDS011;3299;42.004;24.868;2022-09-09T03:11:57;11.43;;;6.60;;
6531;SDS011;3299;42.004;24.868;2022-09-09T03:14:23;7.07;;;6.47;;
6531;SDS011;3299;42.004;24.868;2022-09-09T03:16:51;8.93;;;6.35;;
6531;SDS011;3299;42.004;24.868;2022-09-09T03:19:18;12.48;;;7.45;;
6531;SDS011;3299;42.004;24.868;2022-09-09T03:21:44;14.80;;;6.90;;
6531;SDS011;3299;42.004;24.868;2022-09-09T03:24:10;7.32;;;6.25;;
6531;SDS011;3299;42.004;24.868;2022-09-09T03:26:35;7.65;;;6.57;;
6531;SDS011;3299;42.004;24.868;2022-09-09T03:29:02;11.43;;;7.45;;
6531;SDS011;3299;42.004;24.868;2022-09-09T03:31:30;11.43;;;6.38;;
6531;SDS011;3299;42.004;24.868;2022-09-09T03:33:56;12.40;;;7.50;;
6531;SDS011;3299;42.004;24.868;2022-09-09T03:36:23;11.75;;;7.75;;
6531;SDS011;3299;42.004;24.868;2022-09-09T03:38:49;13.40;;;7.20;;
6531;SDS011;3299;42.004;24.868;2022-09-09T03:41:15;12.80;;;7.75;;
6531;SDS011;3299;42.004;24.868;2022-09-09T03:43:41;7.97;;;6.65;;
6531;SDS011;3299;42.004;24.868;2022-09-09T03:46:06;7.57;;;6.78;;
6531;SDS011;3299;42.004;24.868;2022-09-09T03:48:32;9.55;;;7.78;;
6531;SDS011;3299;42.004;24.868;2022-09-09T03:50:57;7.18;;;6.55;;
6531;SDS011;3299;42.004;24.868;2022-09-09T03:53:25;7.32;;;6.28;;
6531;SDS011;3299;42.004;24.868;2022-09-09T03:55:52;9.10;;;6.85;;
6531;SDS011;3299;42.004;24.868;2022-09-09T03:58:20;8.15;;;7.03;;
6531;SDS011;3299;42.004;24.868;2022-09-09T04:01:00;8.00;;;7.00;;
6531;SDS011;3299;42.004;24.868;2022-09-09T04:03:28;10.02;;;6.32;;
6531;SDS011;3299;42.004;24.868;2022-09-09T04:05:54;7.57;;;6.65;;
6531;SDS011;3299;42.004;24.868;2022-09-09T04:08:22;9.10;;;6.30;;
6531;SDS011;3299;42.004;24.868;2022-09-09T04:10:50;7.72;;;6.47;;
6531;SDS011;3299;42.004;24.868;2022-09-09T04:13:16;6.18;;;5.65;;
6531;SDS011;3299;42.004;24.868;2022-09-09T04:15:43;7.35;;;6.63;;
6531;SDS011;3299;42.004;24.868;2022-09-09T04:18:10;7.05;;;6.35;;
6531;SDS011;3299;42.004;24.868;2022-09-09T04:20:36;10.20;;;6.38;;
6531;SDS011;3299;42.004;24.868;2022-09-09T04:23:02;8.60;;;6.32;;
6531;SDS011;3299;42.004;24.868;2022-09-09T04:25:28;5.65;;;5.15;;
6531;SDS011;3299;42.004;24.868;2022-09-09T04:27:54;6.68;;;5.93;;
6531;SDS011;3299;42.004;24.868;2022-09-09T04:30:21;13.20;;;7.22;;
6531;SDS011;3299;42.004;24.868;2022-09-09T04:32:47;9.35;;;6.30;;
6531;SDS011;3299;42.004;24.868;2022-09-09T04:35:12;7.15;;;5.80;;
6531;SDS011;3299;42.004;24.868;2022-09-09T04:37:37;10.45;;;7.15;;
6531;SDS011;3299;42.004;24.868;2022-09-09T04:40:03;9.02;;;6.75;;
6531;SDS011;3299;42.004;24.868;2022-09-09T04:42:29;12.02;;;7.38;;
6531;SDS011;3299;42.004;24.868;2022-09-09T04:44:55;9.02;;;7.35;;
6531;SDS011;3299;42.004;24.868;2022-09-09T04:47:20;8.23;;;7.43;;
6531;SDS011;3299;42.004;24.868;2022-09-09T04:49:46;11.68;;;9.00;;
6531;SDS011;3299;42.004;24.868;2022-09-09T04:52:12;16.65;;;8.48;;
6531;SDS011;3299;42.004;24.868;2022-09-09T04:54:37;13.23;;;7.95;;
6531;SDS011;3299;42.004;24.868;2022-09-09T04:57:03;15.00;;;8.15;;
6531;SDS011;3299;42.004;24.868;2022-09-09T04:59:29;13.88;;;8.07;;
6531;SDS011;3299;42.004;24.868;2022-09-09T05:01:55;8.07;;;6.70;;
6531;SDS011;3299;42.004;24.868;2022-09-09T05:04:21;7.35;;;5.25;;
6531;SDS011;3299;42.004;24.868;2022-09-09T05:06:46;7.28;;;5.70;;
6531;SDS011;3299;42.004;24.868;2022-09-09T05:09:11;6.68;;;5.85;;
6531;SDS011;3299;42.004;24.868;2022-09-09T05:11:37;9.43;;;6.72;;
6531;SDS011;3299;42.004;24.868;2022-09-09T05:14:03;10.30;;;7.35;;
6531;SDS011;3299;42.004;24.868;2022-09-09T05:16:29;12.13;;;7.20;;
6531;SDS011;3299;42.004;24.868;2022-09-09T05:18:55;14.18;;;7.72;;
6531;SDS011;3299;42.004;24.868;2022-09-09T05:21:22;13.68;;;8.02;;
6531;SDS011;3299;42.004;24.868;2022-09-09T05:23:50;17.60;;;7.70;;
6531;SDS011;3299;42.004;24.868;2022-09-09T05:26:17;10.07;;;8.00;;
6531;SDS011;3299;42.004;24.868;2022-09-09T05:28:44;11.45;;;7.35;;
6531;SDS011;3299;42.004;24.868;2022-09-09T05:31:10;10.90;;;7.10;;
6531;SDS011;3299;42.004;24.868;2022-09-09T05:33:38;10.70;;;7.88;;
6531;SDS011;3299;42.004;24.868;2022-09-09T05:36:09;12.90;;;7.88;;
6531;SDS011;3299;42.004;24.868;2022-09-09T05:38:38;12.20;;;8.48;;
6531;SDS011;3299;42.004;24.868;2022-09-09T05:41:05;19.23;;;10.25;;
6531;SDS011;3299;42.004;24.868;2022-09-09T05:43:32;15.02;;;8.32;;
6531;SDS011;3299;42.004;24.868;2022-09-09T05:45:59;11.48;;;8.02;;
6531;SDS011;3299;42.004;24.868;2022-09-09T05:48:34;9.70;;;8.30;;
6531;SDS011;3299;42.004;24.868;2022-09-09T05:51:04;8.85;;;7.65;;
6531;SDS011;3299;42.004;24.868;2022-09-09T05:53:32;10.75;;;7.80;;
6531;SDS011;3299;42.004;24.868;2022-09-09T05:55:59;11.65;;;7.80;;
6531;SDS011;3299;42.004;24.868;2022-09-09T05:58:30;8.65;;;7.75;;
6531;SDS011;3299;42.004;24.868;2022-09-09T06:01:00;11.30;;;7.78;;
6531;SDS011;3299;42.004;24.868;2022-09-09T06:03:27;11.02;;;7.30;;
6531;SDS011;3299;42.004;24.868;2022-09-09T06:06:03;11.57;;;7.53;;
6531;SDS011;3299;42.004;24.868;2022-09-09T06:08:31;12.02;;;7.63;;
6531;SDS011;3299;42.004;24.868;2022-09-09T06:11:12;10.10;;;7.28;;
6531;SDS011;3299;42.004;24.868;2022-09-09T06:13:39;7.28;;;6.68;;
6531;SDS011;3299;42.004;24.868;2022-09-09T06:16:05;13.68;;;6.88;;
6531;SDS011;3299;42.004;24.868;2022-09-09T06:18:33;14.20;;;7.72;;
6531;SDS011;3299;42.004;24.868;2022-09-09T06:21:03;9.00;;;6.90;;
6531;SDS011;3299;42.004;24.868;2022-09-09T06:23:31;8.30;;;6.57;;
6531;SDS011;3299;42.004;24.868;2022-09-09T06:26:07;7.78;;;6.53;;
6531;SDS011;3299;42.004;24.868;2022-09-09T06:28:35;14.70;;;7.38;;
6531;SDS011;3299;42.004;24.868;2022-09-09T06:31:02;11.38;;;7.50;;
6531;SDS011;3299;42.004;24.868;2022-09-09T06:33:33;11.52;;;7.25;;
6531;SDS011;3299;42.004;24.868;2022-09-09T06:36:02;10.70;;;7.32;;
6531;SDS011;3299;42.004;24.868;2022-09-09T06:38:28;8.18;;;7.35;;
6531;SDS011;3299;42.004;24.868;2022-09-09T06:40:54;13.00;;;7.63;;
6531;SDS011;3299;42.004;24.868;2022-09-09T06:43:21;13.65;;;8.13;;
6531;SDS011;3299;42.004;24.868;2022-09-09T06:48:35;14.30;;;8.57;;
6531;SDS011;3299;42.004;24.868;2022-09-09T06:53:31;15.98;;;8.02;;
6531;SDS011;3299;42.004;24.868;2022-09-09T06:56:01;12.98;;;9.02;;
6531;SDS011;3299;42.004;24.868;2022-09-09T06:58:27;20.80;;;8.30;;
6531;SDS011;3299;42.004;24.868;2022-09-09T07:01:01;10.85;;;8.50;;
6531;SDS011;3299;42.004;24.868;2022-09-09T07:03:32;15.38;;;9.52;;
6531;SDS011;3299;42.004;24.868;2022-09-09T07:05:59;14.68;;;8.65;;
6531;SDS011;3299;42.004;24.868;2022-09-09T07:08:25;15.43;;;8.23;;
6531;SDS011;3299;42.004;24.868;2022-09-09T07:10:51;13.60;;;8.05;;
6531;SDS011;3299;42.004;24.868;2022-09-09T07:13:19;12.48;;;8.35;;
6531;SDS011;3299;42.004;24.868;2022-09-09T07:15:51;10.25;;;7.80;;
6531;SDS011;3299;42.004;24.868;2022-09-09T07:18:17;14.07;;;8.07;;
6531;SDS011;3299;42.004;24.868;2022-09-09T07:20:43;13.93;;;8.90;;
6531;SDS011;3299;42.004;24.868;2022-09-09T07:23:17;14.40;;;8.90;;
6531;SDS011;3299;42.004;24.868;2022-09-09T07:25:46;14.13;;;8.45;;
6531;SDS011;3299;42.004;24.868;2022-09-09T07:28:12;13.25;;;8.13;;
6531;SDS011;3299;42.004;24.868;2022-09-09T07:30:38;15.77;;;8.15;;
6531;SDS011;3299;42.004;24.868;2022-09-09T07:33:04;13.20;;;8.73;;
6531;SDS011;3299;42.004;24.868;2022-09-09T07:35:29;14.48;;;7.50;;
6531;SDS011;3299;42.004;24.868;2022-09-09T07:37:54;15.85;;;8.55;;
6531;SDS011;3299;42.004;24.868;2022-09-09T07:40:20;14.27;;;8.70;;
6531;SDS011;3299;42.004;24.868;2022-09-09T07:42:46;13.25;;;9.00;;
6531;SDS011;3299;42.004;24.868;2022-09-09T07:45:12;13.20;;;8.10;;
6531;SDS011;3299;42.004;24.868;2022-09-09T07:47:39;12.38;;;8.45;;
6531;SDS011;3299;42.004;24.868;2022-09-09T07:50:06;11.63;;;8.55;;
6531;SDS011;3299;42.004;24.868;2022-09-09T07:52:33;9.85;;;7.95;;
6531;SDS011;3299;42.004;24.868;2022-09-09T07:54:58;11.48;;;7.43;;
6531;SDS011;3299;42.004;24.868;2022-09-09T07:57:25;9.32;;;8.20;;
6531;SDS011;3299;42.004;24.868;2022-09-09T07:59:50;9.07;;;8.05;;
6531;SDS011;3299;42.004;24.868;2022-09-09T08:02:16;11.93;;;8.32;;
6531;SDS011;3299;42.004;24.868;2022-09-09T08:04:42;15.60;;;8.73;;
6531;SDS011;3299;42.004;24.868;2022-09-09T08:07:07;10.07;;;8.38;;
6531;SDS011;3299;42.004;24.868;2022-09-09T08:09:33;14.73;;;9.00;;
6531;SDS011;3299;42.004;24.868;2022-09-09T08:11:58;9.13;;;8.20;;
6531;SDS011;3299;42.004;24.868;2022-09-09T08:14:25;13.02;;;8.00;;
6531;SDS011;3299;42.004;24.868;2022-09-09T08:16:51;17.73;;;8.30;;
6531;SDS011;3299;42.004;24.868;2022-09-09T08:19:19;13.52;;;8.07;;
6531;SDS011;3299;42.004;24.868;2022-09-09T08:21:44;10.95;;;8.57;;
6531;SDS011;3299;42.004;24.868;2022-09-09T08:24:11;12.82;;;8.27;;
6531;SDS011;3299;42.004;24.868;2022-09-09T08:26:38;9.88;;;8.13;;
6531;SDS011;3299;42.004;24.868;2022-09-09T08:29:07;12.52;;;7.95;;
6531;SDS011;3299;42.004;24.868;2022-09-09T08:31:37;13.57;;;8.70;;
6531;SDS011;3299;42.004;24.868;2022-09-09T08:34:04;13.75;;;8.00;;
6531;SDS011;3299;42.004;24.868;2022-09-09T08:36:32;16.50;;;8.35;;
6531;SDS011;3299;42.004;24.868;2022-09-09T08:38:59;9.07;;;7.68;;
6531;SDS011;3299;42.004;24.868;2022-09-09T08:41:38;11.57;;;8.45;;
6531;SDS011;3299;42.004;24.868;2022-09-09T08:52:29;10.98;;;7.88;;
6531;SDS011;3299;42.004;24.868;2022-09-09T08:54:57;9.95;;;7.90;;
6531;SDS011;3299;42.004;24.868;2022-09-09T08:57:28;14.82;;;8.45;;
6531;SDS011;3299;42.004;24.868;2022-09-09T08:59:57;11.00;;;7.60;;
6531;SDS011;3299;42.004;24.868;2022-09-09T09:10:45;8.82;;;7.35;;
6531;SDS011;3299;42.004;24.868;2022-09-09T09:13:15;20.15;;;7.72;;
6531;SDS011;3299;42.004;24.868;2022-09-09T09:15:43;9.30;;;7.22;;
6531;SDS011;3299;42.004;24.868;2022-09-09T09:18:12;12.85;;;8.23;;
6531;SDS011;3299;42.004;24.868;2022-09-09T09:20:41;8.70;;;6.70;;
6531;SDS011;3299;42.004;24.868;2022-09-09T09:23:09;13.27;;;7.80;;
6531;SDS011;3299;42.004;24.868;2022-09-09T09:25:43;10.18;;;7.78;;
6531;SDS011;3299;42.004;24.868;2022-09-09T09:28:13;8.35;;;7.22;;
6531;SDS011;3299;42.004;24.868;2022-09-09T09:33:26;9.15;;;8.23;;
6531;SDS011;3299;42.004;24.868;2022-09-09T09:35:57;11.65;;;7.43;;
6531;SDS011;3299;42.004;24.868;2022-09-09T09:38:26;11.65;;;8.05;;
6531;SDS011;3299;42.004;24.868;2022-09-09T09:40:54;14.82;;;8.38;;
6531;SDS011;3299;42.004;24.868;2022-09-09T09:43:29;12.20;;;7.65;;
6531;SDS011;3299;42.004;24.868;2022-09-09T09:45:57;11.27;;;7.75;;
6531;SDS011;3299;42.004;24.868;2022-09-09T09:48:23;11.68;;;7.25;;
6531;SDS011;3299;42.004;24.868;2022-09-09T09:50:51;10.43;;;7.60;;
6531;SDS011;3299;42.004;24.868;2022-09-09T09:53:26;11.60;;;7.30;;
6531;SDS011;3299;42.004;24.868;2022-09-09T09:55:55;10.50;;;7.50;;
6531;SDS011;3299;42.004;24.868;2022-09-09T09:58:20;8.45;;;7.50;;
6531;SDS011;3299;42.004;24.868;2022-09-09T10:00:50;8.32;;;6.80;;
6531;SDS011;3299;42.004;24.868;2022-09-09T10:03:25;8.77;;;6.90;;
6531;SDS011;3299;42.004;24.868;2022-09-09T10:05:52;9.20;;;7.15;;
6531;SDS011;3299;42.004;24.868;2022-09-09T10:08:18;9.80;;;7.53;;
6531;SDS011;3299;42.004;24.868;2022-09-09T10:11:02;7.28;;;6.38;;
6531;SDS011;3299;42.004;24.868;2022-09-09T10:19:35;6.47;;;5.93;;
6531;SDS011;3299;42.004;24.868;2022-09-09T10:28:08;6.72;;;6.05;;
6531;SDS011;3299;42.004;24.868;2022-09-09T10:38:39;7.15;;;5.68;;
6531;SDS011;3299;42.004;24.868;2022-09-09T10:41:51;6.53;;;5.97;;
6531;SDS011;3299;42.004;24.868;2022-09-09T10:50:14;6.65;;;5.97;;
6531;SDS011;3299;42.004;24.868;2022-09-09T10:55:20;6.30;;;5.47;;
6531;SDS011;3299;42.004;24.868;2022-09-09T10:57:51;5.65;;;5.07;;
6531;SDS011;3299;42.004;24.868;2022-09-09T11:00:26;6.25;;;4.63;;
6531;SDS011;3299;42.004;24.868;2022-09-09T11:03:05;6.40;;;5.22;;
6531;SDS011;3299;42.004;24.868;2022-09-09T11:05:44;6.00;;;5.40;;
6531;SDS011;3299;42.004;24.868;2022-09-09T11:08:21;8.32;;;5.13;;
6531;SDS011;3299;42.004;24.868;2022-09-09T11:18:55;9.73;;;4.80;;
6531;SDS011;3299;42.004;24.868;2022-09-09T11:21:31;5.35;;;4.80;;
6531;SDS011;3299;42.004;24.868;2022-09-09T11:24:17;5.47;;;4.28;;
6531;SDS011;3299;42.004;24.868;2022-09-09T11:26:52;7.22;;;5.47;;
6531;SDS011;3299;42.004;24.868;2022-09-09T11:29:32;5.80;;;4.57;;
6531;SDS011;3299;42.004;24.868;2022-09-09T11:32:22;9.43;;;4.95;;
6531;SDS011;3299;42.004;24.868;2022-09-09T11:43:03;4.72;;;4.30;;
6531;SDS011;3299;42.004;24.868;2022-09-09T11:45:39;4.57;;;4.20;;
6531;SDS011;3299;42.004;24.868;2022-09-09T11:48:10;5.82;;;4.82;;
6531;SDS011;3299;42.004;24.868;2022-09-09T11:50:57;6.63;;;4.32;;
6531;SDS011;3299;42.004;24.868;2022-09-09T11:53:24;9.27;;;4.70;;
6531;SDS011;3299;42.004;24.868;2022-09-09T11:58:43;5.30;;;4.82;;
6531;SDS011;3299;42.004;24.868;2022-09-09T12:02:22;5.60;;;4.05;;
6531;SDS011;3299;42.004;24.868;2022-09-09T12:06:57;5.10;;;4.38;;
6531;SDS011;3299;42.004;24.868;2022-09-09T12:19:39;7.75;;;4.85;;
6531;SDS011;3299;42.004;24.868;2022-09-09T12:24:51;7.05;;;5.45;;
6531;SDS011;3299;42.004;24.868;2022-09-09T12:27:23;5.55;;;4.93;;
6531;SDS011;3299;42.004;24.868;2022-09-09T12:32:35;8.73;;;5.05;;
6531;SDS011;3299;42.004;24.868;2022-09-09T12:35:02;7.65;;;4.32;;
6531;SDS011;3299;42.004;24.868;2022-09-09T12:37:46;7.47;;;4.65;;
6531;SDS011;3299;42.004;24.868;2022-09-09T12:42:49;6.45;;;4.50;;
6531;SDS011;3299;42.004;24.868;2022-09-09T12:45:16;6.07;;;4.03;;
6531;SDS011;3299;42.004;24.868;2022-09-09T12:48:03;5.10;;;4.32;;
6531;SDS011;3299;42.004;24.868;2022-09-09T12:50:33;5.13;;;4.53;;
6531;SDS011;3299;42.004;24.868;2022-09-09T12:53:08;8.30;;;5.00;;
6531;SDS011;3299;42.004;24.868;2022-09-09T12:55:48;6.40;;;4.53;;
6531;SDS011;3299;42.004;24.868;2022-09-09T12:58:17;9.45;;;5.20;;
6531;SDS011;3299;42.004;24.868;2022-09-09T13:00:50;6.35;;;5.32;;
6531;SDS011;3299;42.004;24.868;2022-09-09T13:03:18;5.10;;;4.60;;
6531;SDS011;3299;42.004;24.868;2022-09-09T13:05:46;9.27;;;4.75;;
6531;SDS011;3299;42.004;24.868;2022-09-09T13:08:12;4.22;;;3.92;;
6531;SDS011;3299;42.004;24.868;2022-09-09T13:13:22;7.22;;;4.70;;
6531;SDS011;3299;42.004;24.868;2022-09-09T13:15:54;6.22;;;4.60;;
6531;SDS011;3299;42.004;24.868;2022-09-09T13:18:22;9.00;;;5.40;;
6531;SDS011;3299;42.004;24.868;2022-09-09T13:20:50;12.27;;;4.88;;
6531;SDS011;3299;42.004;24.868;2022-09-09T13:23:17;6.03;;;4.50;;
6531;SDS011;3299;42.004;24.868;2022-09-09T13:25:57;5.38;;;4.88;;
6531;SDS011;3299;42.004;24.868;2022-09-09T13:28:25;7.50;;;4.50;;
6531;SDS011;3299;42.004;24.868;2022-09-09T13:30:57;6.35;;;4.85;;
6531;SDS011;3299;42.004;24.868;2022-09-09T13:33:30;10.40;;;4.85;;
6531;SDS011;3299;42.004;24.868;2022-09-09T13:36:06;8.45;;;4.53;;
6531;SDS011;3299;42.004;24.868;2022-09-09T13:38:36;7.93;;;4.70;;
6531;SDS011;3299;42.004;24.868;2022-09-09T13:41:25;7.50;;;5.07;;
6531;SDS011;3299;42.004;24.868;2022-09-09T13:44:14;7.88;;;5.57;;
6531;SDS011;3299;42.004;24.868;2022-09-09T13:46:44;7.07;;;5.00;;
6531;SDS011;3299;42.004;24.868;2022-09-09T13:51:40;6.85;;;5.10;;
6531;SDS011;3299;42.004;24.868;2022-09-09T13:54:06;6.53;;;4.63;;
6531;SDS011;3299;42.004;24.868;2022-09-09T13:56:35;10.18;;;5.28;;
6531;SDS011;3299;42.004;24.868;2022-09-09T13:59:02;7.22;;;5.20;;
6531;SDS011;3299;42.004;24.868;2022-09-09T14:01:28;7.95;;;4.70;;
6531;SDS011;3299;42.004;24.868;2022-09-09T14:03:54;10.07;;;4.97;;
6531;SDS011;3299;42.004;24.868;2022-09-09T14:06:27;13.20;;;4.93;;
6531;SDS011;3299;42.004;24.868;2022-09-09T14:08:54;5.30;;;4.82;;
6531;SDS011;3299;42.004;24.868;2022-09-09T14:11:19;6.25;;;4.43;;
6531;SDS011;3299;42.004;24.868;2022-09-09T14:13:46;5.43;;;4.97;;
6531;SDS011;3299;42.004;24.868;2022-09-09T14:16:15;6.43;;;5.03;;
6531;SDS011;3299;42.004;24.868;2022-09-09T14:18:44;6.43;;;5.20;;
6531;SDS011;3299;42.004;24.868;2022-09-09T14:21:10;6.75;;;5.38;;
6531;SDS011;3299;42.004;24.868;2022-09-09T14:23:36;9.30;;;4.72;;
6531;SDS011;3299;42.004;24.868;2022-09-09T14:26:03;7.10;;;4.78;;
6531;SDS011;3299;42.004;24.868;2022-09-09T14:28:29;8.73;;;5.60;;
6531;SDS011;3299;42.004;24.868;2022-09-09T14:30:54;6.18;;;5.57;;
6531;SDS011;3299;42.004;24.868;2022-09-09T14:33:20;6.70;;;5.50;;
6531;SDS011;3299;42.004;24.868;2022-09-09T14:35:46;6.32;;;4.90;;
6531;SDS011;3299;42.004;24.868;2022-09-09T14:38:11;6.97;;;5.18;;
6531;SDS011;3299;42.004;24.868;2022-09-09T14:40:37;6.13;;;4.90;;
6531;SDS011;3299;42.004;24.868;2022-09-09T14:43:04;7.68;;;4.85;;
6531;SDS011;3299;42.004;24.868;2022-09-09T14:45:30;6.30;;;4.93;;
6531;SDS011;3299;42.004;24.868;2022-09-09T14:47:56;6.32;;;4.80;;
6531;SDS011;3299;42.004;24.868;2022-09-09T14:50:22;6.43;;;4.93;;
6531;SDS011;3299;42.004;24.868;2022-09-09T14:52:48;5.63;;;4.97;;
6531;SDS011;3299;42.004;24.868;2022-09-09T14:55:14;5.72;;;5.30;;
6531;SDS011;3299;42.004;24.868;2022-09-09T14:57:40;11.15;;;5.80;;
6531;SDS011;3299;42.004;24.868;2022-09-09T15:00:07;10.13;;;5.90;;
6531;SDS011;3299;42.004;24.868;2022-09-09T15:02:33;8.25;;;6.22;;
6531;SDS011;3299;42.004;24.868;2022-09-09T15:04:59;9.98;;;6.72;;
6531;SDS011;3299;42.004;24.868;2022-09-09T15:07:25;12.82;;;5.80;;
6531;SDS011;3299;42.004;24.868;2022-09-09T15:09:51;8.80;;;6.20;;
6531;SDS011;3299;42.004;24.868;2022-09-09T15:12:17;7.93;;;6.40;;
6531;SDS011;3299;42.004;24.868;2022-09-09T15:14:46;7.78;;;6.18;;
6531;SDS011;3299;42.004;24.868;2022-09-09T15:17:12;9.75;;;6.70;;
6531;SDS011;3299;42.004;24.868;2022-09-09T15:19:38;10.60;;;6.68;;
6531;SDS011;3299;42.004;24.868;2022-09-09T15:22:04;7.80;;;6.97;;
6531;SDS011;3299;42.004;24.868;2022-09-09T15:24:33;10.77;;;6.72;;
6531;SDS011;3299;42.004;24.868;2022-09-09T15:26:59;8.05;;;6.63;;
6531;SDS011;3299;42.004;24.868;2022-09-09T15:29:24;10.95;;;7.00;;
6531;SDS011;3299;42.004;24.868;2022-09-09T15:31:50;11.05;;;6.38;;
6531;SDS011;3299;42.004;24.868;2022-09-09T15:34:15;14.10;;;6.13;;
6531;SDS011;3299;42.004;24.868;2022-09-09T15:36:42;7.40;;;6.72;;
6531;SDS011;3299;42.004;24.868;2022-09-09T15:39:10;7.20;;;6.10;;
6531;SDS011;3299;42.004;24.868;2022-09-09T15:41:37;12.38;;;7.30;;
6531;SDS011;3299;42.004;24.868;2022-09-09T15:44:04;14.43;;;8.88;;
6531;SDS011;3299;42.004;24.868;2022-09-09T15:46:34;9.73;;;7.50;;
6531;SDS011;3299;42.004;24.868;2022-09-09T15:51:31;10.10;;;7.05;;
6531;SDS011;3299;42.004;24.868;2022-09-09T15:53:58;10.45;;;6.95;;
6531;SDS011;3299;42.004;24.868;2022-09-09T15:56:27;7.47;;;6.78;;
6531;SDS011;3299;42.004;24.868;2022-09-09T15:58:55;7.25;;;6.55;;
6531;SDS011;3299;42.004;24.868;2022-09-09T16:01:22;8.30;;;6.90;;
6531;SDS011;3299;42.004;24.868;2022-09-09T16:03:48;14.60;;;9.63;;
6531;SDS011;3299;42.004;24.868;2022-09-09T16:06:19;10.07;;;6.60;;
6531;SDS011;3299;42.004;24.868;2022-09-09T16:08:47;7.57;;;6.45;;
6531;SDS011;3299;42.004;24.868;2022-09-09T16:11:21;9.93;;;6.57;;
6531;SDS011;3299;42.004;24.868;2022-09-09T16:13:49;9.63;;;7.15;;
6531;SDS011;3299;42.004;24.868;2022-09-09T16:16:16;10.48;;;7.07;;
6531;SDS011;3299;42.004;24.868;2022-09-09T16:18:47;6.68;;;6.10;;
6531;SDS011;3299;42.004;24.868;2022-09-09T16:21:26;9.80;;;7.20;;
6531;SDS011;3299;42.004;24.868;2022-09-09T16:23:57;10.93;;;7.68;;
6531;SDS011;3299;42.004;24.868;2022-09-09T16:26:27;9.10;;;7.75;;
6531;SDS011;3299;42.004;24.868;2022-09-09T16:28:55;8.38;;;6.88;;
6531;SDS011;3299;42.004;24.868;2022-09-09T16:31:21;10.60;;;7.35;;
6531;SDS011;3299;42.004;24.868;2022-09-09T16:33:48;12.95;;;7.20;;
6531;SDS011;3299;42.004;24.868;2022-09-09T16:36:19;8.48;;;7.03;;
6531;SDS011;3299;42.004;24.868;2022-09-09T16:38:46;10.05;;;7.28;;
6531;SDS011;3299;42.004;24.868;2022-09-09T16:41:12;14.10;;;7.00;;
6531;SDS011;3299;42.004;24.868;2022-09-09T16:43:39;10.98;;;8.30;;
6531;SDS011;3299;42.004;24.868;2022-09-09T16:46:15;10.35;;;7.68;;
6531;SDS011;3299;42.004;24.868;2022-09-09T16:48:44;7.65;;;6.93;;
6531;SDS011;3299;42.004;24.868;2022-09-09T16:51:15;9.27;;;6.72;;
6531;SDS011;3299;42.004;24.868;2022-09-09T16:53:53;7.40;;;6.70;;
6531;SDS011;3299;42.004;24.868;2022-09-09T16:56:20;7.82;;;7.05;;
6531;SDS011;3299;42.004;24.868;2022-09-09T16:58:53;13.23;;;6.72;;
6531;SDS011;3299;42.004;24.868;2022-09-09T17:01:26;7.60;;;6.78;;
6531;SDS011;3299;42.004;24.868;2022-09-09T17:03:54;10.77;;;7.90;;
6531;SDS011;3299;42.004;24.868;2022-09-09T17:06:20;11.32;;;7.07;;
6531;SDS011;3299;42.004;24.868;2022-09-09T17:08:46;8.00;;;7.20;;
6531;SDS011;3299;42.004;24.868;2022-09-09T17:11:17;9.23;;;7.13;;
6531;SDS011;3299;42.004;24.868;2022-09-09T17:13:44;8.23;;;7.47;;
6531;SDS011;3299;42.004;24.868;2022-09-09T17:16:12;8.20;;;6.65;;
6531;SDS011;3299;42.004;24.868;2022-09-09T17:18:40;7.80;;;6.70;;
6531;SDS011;3299;42.004;24.868;2022-09-09T17:21:06;9.50;;;7.50;;
6531;SDS011;3299;42.004;24.868;2022-09-09T17:23:34;8.23;;;7.43;;
6531;SDS011;3299;42.004;24.868;2022-09-09T17:26:03;9.75;;;7.03;;
6531;SDS011;3299;42.004;24.868;2022-09-09T17:28:30;11.27;;;7.03;;
6531;SDS011;3299;42.004;24.868;2022-09-09T17:30:57;8.18;;;6.97;;
6531;SDS011;3299;42.004;24.868;2022-09-09T17:33:25;8.15;;;6.90;;
6531;SDS011;3299;42.004;24.868;2022-09-09T17:35:52;10.20;;;7.07;;
6531;SDS011;3299;42.004;24.868;2022-09-09T17:38:17;10.02;;;6.93;;
6531;SDS011;3299;42.004;24.868;2022-09-09T17:40:43;10.35;;;7.88;;
6531;SDS011;3299;42.004;24.868;2022-09-09T17:43:08;7.85;;;7.15;;
6531;SDS011;3299;42.004;24.868;2022-09-09T17:45:34;8.07;;;7.28;;
6531;SDS011;3299;42.004;24.868;2022-09-09T17:47:59;9.20;;;6.32;;